Time;durP1;ratioP1;P1;durP2;ratioP2;P2;SDS_P1;SDS_P2;PMS_P1;PMS_P2;Temp;Humidity;BMP_temperature;BMP_pressure;BME280_temperature;BME280_humidity;BME280_pressure;Samples;Min_cycle;Max_cycle;Signal;HPM_P1;HPM_P2
2022/11/25 00:00:48;;;;;;;7.67;6.03;;;5.80;98.10;;;;;;5028753;28;20208;-85
2022/11/25 00:03:14;;;;;;;7.23;5.50;;;5.80;98.30;;;;;;5027450;28;20185;-84
2022/11/25 00:05:40;;;;;;;5.97;5.27;;;5.80;97.60;;;;;;5028882;28;20182;-86
2022/11/25 00:08:09;;;;;;;6.90;5.03;;;5.80;98.30;;;;;;5028756;28;20174;-85
2022/11/25 00:10:34;;;;;;;5.87;4.90;;;5.80;97.40;;;;;;5029977;28;20202;-83
2022/11/25 00:13:00;;;;;;;5.30;4.63;;;5.80;97.60;;;;;;5028945;28;20192;-84
2022/11/25 00:15:26;;;;;;;5.57;4.83;;;5.70;97.40;;;;;;5027283;28;20209;-84
2022/11/25 00:17:52;;;;;;;8.67;5.20;;;5.70;98.00;;;;;;5021497;28;20216;-85
2022/11/25 00:20:21;;;;;;;8.77;5.77;;;5.70;98.00;;;;;;5028990;28;20217;-86
2022/11/25 00:22:47;;;;;;;8.10;6.53;;;5.70;98.00;;;;;;5029709;28;20193;-85
2022/11/25 00:25:13;;;;;;;8.97;6.70;;;5.60;98.30;;;;;;5029334;28;20268;-86
2022/11/25 00:27:38;;;;;;;7.63;5.50;;;5.70;98.60;;;;;;5028991;28;20682;-86
2022/11/25 00:30:05;;;;;;;7.73;5.73;;;5.70;97.70;;;;;;5028739;28;20392;-86
2022/11/25 00:32:30;;;;;;;7.97;6.13;;;5.70;98.50;;;;;;5022358;28;20767;-85
2022/11/25 00:34:56;;;;;;;9.03;6.30;;;5.50;94.90;;;;;;5026810;28;20194;-85
2022/11/25 00:37:22;;;;;;;9.03;6.50;;;5.30;96.10;;;;;;5028243;28;20249;-85
2022/11/25 00:39:47;;;;;;;8.33;5.57;;;5.40;99.20;;;;;;5028477;28;20252;-85
2022/11/25 00:44:57;;;;;;;7.53;6.37;;;5.50;99.90;;;;;;5023689;28;20196;-85
2022/11/25 00:47:23;;;;;;;7.97;6.60;;;5.50;99.90;;;;;;5025547;28;20233;-85
2022/11/25 00:49:51;;;;;;;7.40;6.57;;;5.50;99.90;;;;;;5022839;28;20203;-84
2022/11/25 00:52:25;;;;;;;8.43;7.17;;;5.50;99.90;;;;;;5023687;28;20715;-85
2022/11/25 00:54:51;;;;;;;8.17;7.37;;;5.60;99.90;;;;;;5011849;28;20185;-85
2022/11/25 00:57:19;;;;;;;11.17;9.37;;;5.60;99.90;;;;;;5025693;28;20200;-86
2022/11/25 00:59:45;;;;;;;13.60;10.37;;;5.60;99.90;;;;;;5026739;28;20210;-85
2022/11/25 01:02:13;;;;;;;11.60;10.10;;;5.60;99.90;;;;;;5025444;28;20796;-87
2022/11/25 01:04:39;;;;;;;12.87;9.50;;;5.70;99.90;;;;;;5022934;28;20181;-85
2022/11/25 01:07:06;;;;;;;9.77;8.47;;;5.80;99.90;;;;;;5025566;28;20188;-86
2022/11/25 01:09:31;;;;;;;9.07;8.03;;;5.70;99.90;;;;;;5024844;28;20201;-86
2022/11/25 01:11:57;;;;;;;8.43;7.60;;;5.80;99.90;;;;;;5023778;28;20205;-85
2022/11/25 01:14:23;;;;;;;7.50;6.70;;;5.80;99.90;;;;;;5023838;28;20536;-86
2022/11/25 01:16:49;;;;;;;8.20;7.40;;;5.80;99.90;;;;;;5022375;28;20251;-84
2022/11/25 01:19:16;;;;;;;8.90;7.93;;;5.80;99.90;;;;;;5023021;28;20217;-86
2022/11/25 01:21:42;;;;;;;8.53;7.73;;;5.80;99.90;;;;;;5025719;28;20197;-85
2022/11/25 01:24:11;;;;;;;9.43;8.07;;;5.90;99.90;;;;;;5021720;28;20219;-86
2022/11/25 01:26:36;;;;;;;10.53;7.77;;;5.90;99.90;;;;;;5025210;28;20178;-85
2022/11/25 01:29:11;;;;;;;8.20;7.23;;;5.80;98.70;;;;;;5021734;28;20308;-85
2022/11/25 01:31:36;;;;;;;11.20;7.37;;;5.70;99.50;;;;;;5025372;28;20204;-86
2022/11/25 01:34:11;;;;;;;8.73;7.27;;;5.50;99.90;;;;;;5024327;28;20220;-84
2022/11/25 01:36:36;;;;;;;10.17;7.80;;;5.60;99.90;;;;;;5025017;28;20245;-87
2022/11/25 01:39:02;;;;;;;10.33;8.00;;;5.60;99.90;;;;;;5024939;28;20213;-84
2022/11/25 01:41:30;;;;;;;11.63;8.30;;;5.70;99.90;;;;;;5021884;28;20212;-86
2022/11/25 01:44:26;;;;;;;11.47;9.23;;;5.70;99.90;;;;;;5023407;28;20205;-84
2022/11/25 01:47:04;;;;;;;8.27;7.30;;;5.80;99.90;;;;;;5008985;28;20204;-86
2022/11/25 01:49:42;;;;;;;8.80;7.47;;;5.80;99.90;;;;;;5018571;28;20220;-86
2022/11/25 01:52:22;;;;;;;8.10;7.00;;;5.80;99.90;;;;;;5022234;28;20202;-85
2022/11/25 01:54:57;;;;;;;7.97;7.13;;;5.80;99.90;;;;;;5019291;28;20301;-86
2022/11/25 01:57:30;;;;;;;8.40;7.43;;;5.80;99.90;;;;;;5007810;28;20189;-87
2022/11/25 01:59:59;;;;;;;9.97;8.03;;;5.80;99.90;;;;;;4996670;28;20220;-86
2022/11/25 02:02:25;;;;;;;8.37;7.53;;;5.80;99.90;;;;;;5018178;28;20212;-85
2022/11/25 02:04:51;;;;;;;10.83;8.17;;;5.70;99.90;;;;;;5026558;28;20189;-85
2022/11/25 02:07:31;;;;;;;7.83;7.00;;;5.70;99.90;;;;;;5029567;28;20260;-86
2022/11/25 02:09:58;;;;;;;9.13;6.97;;;5.70;99.90;;;;;;5027753;28;20287;-84
2022/11/25 02:12:25;;;;;;;8.87;7.63;;;5.60;99.90;;;;;;5029313;28;20212;-84
2022/11/25 02:14:53;;;;;;;9.37;7.07;;;5.50;99.90;;;;;;5028806;28;20192;-85
2022/11/25 02:17:19;;;;;;;6.87;6.17;;;5.50;99.90;;;;;;5028077;28;20257;-85
2022/11/25 02:19:59;;;;;;;9.37;7.23;;;5.60;99.90;;;;;;5028656;28;20217;-87
2022/11/25 02:23:03;;;;;;;9.03;7.07;;;5.70;99.90;;;;;;5001512;28;20285;-87
2022/11/25 02:25:32;;;;;;;7.50;5.73;;;5.70;99.90;;;;;;4984356;28;20243;-86
2022/11/25 02:28:20;;;;;;;6.20;5.00;;;5.70;99.90;;;;;;5027910;28;20185;-85
2022/11/25 02:30:46;;;;;;;9.10;4.63;;;5.60;99.90;;;;;;5021412;28;20209;-87
2022/11/25 02:33:12;;;;;;;6.50;4.30;;;5.50;99.90;;;;;;5032539;28;20215;-86
2022/11/25 02:35:45;;;;;;;7.57;4.73;;;5.50;99.90;;;;;;5024731;28;20216;-85
2022/11/25 02:38:22;;;;;;;7.43;4.70;;;5.50;99.90;;;;;;5028846;28;20194;-85
2022/11/25 02:41:06;;;;;;;5.80;5.13;;;5.60;99.90;;;;;;5026044;28;20228;-85
2022/11/25 02:43:32;;;;;;;5.90;5.00;;;5.60;99.90;;;;;;5028192;28;20182;-87
2022/11/25 02:46:01;;;;;;;7.90;5.37;;;5.60;99.90;;;;;;5027143;28;20649;-86
2022/11/25 02:48:29;;;;;;;6.53;5.37;;;5.70;99.90;;;;;;5027534;28;20200;-85
2022/11/25 02:50:55;;;;;;;7.67;5.10;;;5.60;99.90;;;;;;5027977;28;20312;-85
2022/11/25 02:53:21;;;;;;;7.07;4.87;;;5.60;99.90;;;;;;5027139;28;20193;-87
2022/11/25 02:55:47;;;;;;;6.20;5.03;;;5.60;99.90;;;;;;5027770;28;20204;-84
2022/11/25 02:58:14;;;;;;;6.67;5.37;;;5.60;99.90;;;;;;5027562;28;20190;-85
2022/11/25 03:00:40;;;;;;;6.17;4.80;;;5.60;99.90;;;;;;5026891;28;20205;-85
2022/11/25 03:03:06;;;;;;;7.00;4.30;;;5.60;99.90;;;;;;5027275;28;20177;-85
2022/11/25 03:05:32;;;;;;;4.87;4.47;;;5.60;99.90;;;;;;5027464;28;20192;-84
2022/11/25 03:07:57;;;;;;;4.63;4.07;;;5.60;99.90;;;;;;5025331;28;20190;-86
2022/11/25 03:10:23;;;;;;;4.90;4.37;;;5.60;99.90;;;;;;5029796;28;20240;-85
2022/11/25 03:12:49;;;;;;;5.67;4.80;;;5.50;99.90;;;;;;5028897;28;20845;-85
2022/11/25 03:15:15;;;;;;;4.60;4.20;;;5.60;99.90;;;;;;5027205;28;20208;-86
2022/11/25 03:17:41;;;;;;;4.80;4.30;;;5.60;99.90;;;;;;5029530;28;20216;-86
2022/11/25 03:20:08;;;;;;;6.57;4.40;;;5.60;99.90;;;;;;5028997;28;20228;-85
2022/11/25 03:22:34;;;;;;;4.80;4.40;;;5.60;99.90;;;;;;5029232;28;20201;-86
2022/11/25 03:24:59;;;;;;;4.77;4.30;;;5.60;99.90;;;;;;5021922;28;20194;-86
2022/11/25 03:27:25;;;;;;;5.87;4.73;;;5.60;99.90;;;;;;5029130;28;20189;-85
2022/11/25 03:29:51;;;;;;;4.63;4.10;;;5.60;99.90;;;;;;5029162;28;20192;-85
2022/11/25 03:32:16;;;;;;;5.97;5.20;;;5.60;99.90;;;;;;5024893;28;20220;-85
2022/11/25 03:34:42;;;;;;;6.43;5.07;;;5.60;99.90;;;;;;5027849;28;20200;-85
2022/11/25 03:37:08;;;;;;;9.60;5.97;;;5.60;99.90;;;;;;5027989;28;20189;-85
2022/11/25 03:39:33;;;;;;;5.30;4.80;;;5.60;99.90;;;;;;5028371;28;20239;-86
2022/11/25 03:41:59;;;;;;;5.50;5.00;;;5.60;99.90;;;;;;5033655;28;20212;-86
2022/11/25 03:44:25;;;;;;;5.93;5.23;;;5.40;99.90;;;;;;5033021;28;20174;-86
2022/11/25 03:46:50;;;;;;;5.03;4.60;;;5.50;99.90;;;;;;5031314;28;20244;-85
2022/11/25 03:49:16;;;;;;;5.47;4.73;;;5.50;99.90;;;;;;5029391;28;20186;-85
2022/11/25 03:51:42;;;;;;;5.50;5.00;;;5.60;99.90;;;;;;5031047;28;20213;-85
2022/11/25 03:54:08;;;;;;;5.80;5.10;;;5.50;99.90;;;;;;5026805;28;20190;-85
2022/11/25 03:56:34;;;;;;;5.03;4.50;;;5.50;99.90;;;;;;5025403;28;20212;-87
2022/11/25 03:58:59;;;;;;;5.53;4.90;;;5.50;99.90;;;;;;5026592;28;20686;-86
2022/11/25 04:01:25;;;;;;;6.17;5.37;;;5.40;99.90;;;;;;5027011;28;20206;-85
2022/11/25 04:03:51;;;;;;;5.97;5.17;;;5.40;99.90;;;;;;5025804;28;20193;-86
2022/11/25 04:06:18;;;;;;;6.40;4.93;;;5.40;99.90;;;;;;5027086;28;20185;-86
2022/11/25 04:08:45;;;;;;;6.17;4.73;;;5.40;99.90;;;;;;5008875;28;20201;-85
2022/11/25 04:11:10;;;;;;;6.23;4.80;;;5.50;99.90;;;;;;5023979;28;20228;-85
2022/11/25 04:13:36;;;;;;;5.13;4.50;;;5.40;99.90;;;;;;5025472;28;20189;-87
2022/11/25 04:16:02;;;;;;;6.10;5.50;;;5.40;99.90;;;;;;5026275;28;20727;-85
2022/11/25 04:18:28;;;;;;;5.67;4.87;;;5.50;99.90;;;;;;5025782;28;20239;-85
2022/11/25 04:20:54;;;;;;;8.10;5.50;;;5.50;99.90;;;;;;5019472;28;20209;-85
2022/11/25 04:23:19;;;;;;;6.13;5.53;;;5.50;99.90;;;;;;5025655;28;20202;-85
2022/11/25 04:25:49;;;;;;;6.87;5.20;;;5.60;99.90;;;;;;5026415;28;20185;-87
2022/11/25 04:28:14;;;;;;;5.40;4.90;;;5.60;99.90;;;;;;5026317;28;20209;-85
2022/11/25 04:30:40;;;;;;;4.53;4.13;;;5.50;99.90;;;;;;5024871;28;20213;-85
2022/11/25 04:33:06;;;;;;;6.40;4.70;;;5.60;99.90;;;;;;5024667;28;20667;-85
2022/11/25 04:35:31;;;;;;;5.70;4.03;;;5.50;99.90;;;;;;5027257;28;20185;-85
2022/11/25 04:37:57;;;;;;;7.03;4.63;;;5.60;99.90;;;;;;5029154;28;20217;-87
2022/11/25 04:40:23;;;;;;;7.33;4.73;;;5.60;99.90;;;;;;5023235;28;20233;-85
2022/11/25 04:42:48;;;;;;;5.70;4.67;;;5.40;99.90;;;;;;5018848;28;20209;-85
2022/11/25 04:45:18;;;;;;;4.80;4.30;;;5.20;99.90;;;;;;5022512;28;20190;-86
2022/11/25 04:47:44;;;;;;;5.93;4.20;;;5.10;99.90;;;;;;5027579;28;20193;-85
2022/11/25 04:50:16;;;;;;;6.57;4.57;;;4.90;99.90;;;;;;5026295;28;20197;-85
2022/11/25 04:52:41;;;;;;;8.00;4.50;;;4.90;99.90;;;;;;5025536;28;20185;-85
2022/11/25 04:55:07;;;;;;;5.03;4.17;;;5.00;99.90;;;;;;5025258;28;20220;-87
2022/11/25 04:57:36;;;;;;;6.13;4.43;;;5.00;99.90;;;;;;5032846;28;20181;-85
2022/11/25 05:00:02;;;;;;;4.47;4.07;;;5.10;99.90;;;;;;5025785;28;20212;-84
2022/11/25 05:02:28;;;;;;;4.63;3.93;;;5.20;99.90;;;;;;5025253;28;20189;-87
2022/11/25 05:04:56;;;;;;;5.07;4.07;;;5.20;99.90;;;;;;5027988;28;20185;-85
2022/11/25 05:07:23;;;;;;;5.77;4.00;;;5.20;99.90;;;;;;5026661;28;20193;-85
2022/11/25 05:09:49;;;;;;;5.90;4.03;;;5.20;99.90;;;;;;5026699;28;20186;-87
2022/11/25 05:12:18;;;;;;;4.43;4.00;;;5.20;99.90;;;;;;5025122;28;20205;-86
2022/11/25 05:14:44;;;;;;;5.20;3.90;;;5.10;99.90;;;;;;5025936;28;20230;-85
2022/11/25 05:17:13;;;;;;;5.77;4.03;;;5.10;99.90;;;;;;5030260;28;20484;-85
2022/11/25 05:19:40;;;;;;;4.57;3.63;;;5.10;99.90;;;;;;5025436;28;20208;-86
2022/11/25 05:22:10;;;;;;;4.70;4.03;;;5.00;99.90;;;;;;5025311;28;20205;-87
2022/11/25 05:24:35;;;;;;;5.73;3.87;;;5.10;99.90;;;;;;5017949;28;20197;-85
2022/11/25 05:27:01;;;;;;;5.50;5.00;;;5.10;99.90;;;;;;5026427;28;20189;-87
2022/11/25 05:29:27;;;;;;;6.13;4.43;;;4.90;99.40;;;;;;5028586;28;20182;-85
2022/11/25 05:31:52;;;;;;;4.23;3.83;;;4.70;99.90;;;;;;5026209;28;20368;-85
2022/11/25 05:34:18;;;;;;;4.23;3.83;;;4.60;99.90;;;;;;5022214;28;20197;-87
2022/11/25 05:36:44;;;;;;;4.37;3.97;;;4.60;99.90;;;;;;5029928;28;20194;-88
2022/11/25 05:39:10;;;;;;;7.73;4.40;;;4.70;99.90;;;;;;5030174;28;20205;-85
2022/11/25 05:41:35;;;;;;;5.37;4.23;;;4.90;99.90;;;;;;5033113;28;20209;-85
2022/11/25 05:44:01;;;;;;;4.40;4.00;;;4.80;99.90;;;;;;5033898;28;20189;-85
2022/11/25 05:46:27;;;;;;;9.07;5.50;;;4.90;99.90;;;;;;5027927;28;20189;-85
2022/11/25 05:48:54;;;;;;;6.10;4.60;;;4.80;99.90;;;;;;5033165;28;20199;-86
2022/11/25 05:51:20;;;;;;;7.07;5.70;;;4.80;99.90;;;;;;5024547;28;20208;-87
2022/11/25 05:53:46;;;;;;;5.77;5.23;;;4.90;99.90;;;;;;5033718;28;20197;-85
2022/11/25 05:56:12;;;;;;;6.70;5.63;;;5.00;99.90;;;;;;5019445;28;20192;-86
2022/11/25 05:58:37;;;;;;;6.63;5.00;;;4.80;99.90;;;;;;5015764;28;20209;-85
2022/11/25 06:01:08;;;;;;;6.23;5.23;;;4.80;99.90;;;;;;5027305;28;20221;-88
2022/11/25 06:03:34;;;;;;;6.27;5.63;;;4.90;99.90;;;;;;5031989;28;20185;-86
2022/11/25 06:06:00;;;;;;;6.63;4.40;;;5.00;99.90;;;;;;5035686;28;20197;-87
2022/11/25 06:08:26;;;;;;;5.97;5.30;;;5.00;99.90;;;;;;5037826;28;20220;-86
2022/11/25 06:10:52;;;;;;;5.80;5.20;;;5.10;99.90;;;;;;5034785;28;20201;-85
2022/11/25 06:13:18;;;;;;;5.60;4.97;;;5.10;99.90;;;;;;5032917;28;20212;-87
2022/11/25 06:15:44;;;;;;;6.23;5.60;;;5.20;99.90;;;;;;5034245;28;20173;-88
2022/11/25 06:18:12;;;;;;;6.23;5.20;;;5.20;99.90;;;;;;5020555;28;20198;-86
2022/11/25 06:20:38;;;;;;;5.80;5.17;;;5.30;99.90;;;;;;5034976;28;20213;-88
2022/11/25 06:23:04;;;;;;;5.90;5.27;;;5.20;99.90;;;;;;5037065;28;20244;-88
2022/11/25 06:25:31;;;;;;;5.33;4.83;;;5.20;99.90;;;;;;5039667;28;20185;-84
2022/11/25 06:27:57;;;;;;;9.33;5.33;;;5.20;99.90;;;;;;5022196;28;20196;-87
2022/11/25 06:30:25;;;;;;;7.57;5.33;;;5.40;99.90;;;;;;5034583;28;20209;-87
2022/11/25 06:32:53;;;;;;;6.17;5.57;;;5.40;99.90;;;;;;5038081;28;20198;-82
2022/11/25 06:35:19;;;;;;;6.47;5.23;;;5.40;99.90;;;;;;5023018;28;20204;-86
2022/11/25 06:37:45;;;;;;;8.60;6.60;;;5.30;99.90;;;;;;5037747;28;20667;-85
2022/11/25 06:40:11;;;;;;;6.97;5.97;;;5.10;99.90;;;;;;5036829;28;20205;-85
2022/11/25 06:42:37;;;;;;;6.73;5.83;;;5.20;99.90;;;;;;5035190;28;20268;-86
2022/11/25 06:45:04;;;;;;;24.07;22.23;;;5.10;99.90;;;;;;5041186;28;20216;-87
2022/11/25 06:47:30;;;;;;;6.13;5.43;;;5.00;99.90;;;;;;5017279;28;20201;-88
2022/11/25 06:49:55;;;;;;;7.13;5.23;;;5.10;99.90;;;;;;5040617;28;20194;-85
2022/11/25 06:52:21;;;;;;;9.17;5.70;;;4.90;99.90;;;;;;5036987;28;20271;-85
2022/11/25 06:54:56;;;;;;;7.97;6.03;;;4.90;99.90;;;;;;5042484;28;20185;-84
2022/11/25 06:57:22;;;;;;;7.13;6.33;;;5.00;99.90;;;;;;5041505;28;20215;-86
2022/11/25 06:59:50;;;;;;;9.67;8.00;;;5.10;99.90;;;;;;5034043;28;20205;-87
2022/11/25 07:02:17;;;;;;;8.80;7.63;;;5.20;99.90;;;;;;5034087;28;20206;-85
2022/11/25 07:04:43;;;;;;;8.87;6.60;;;5.20;99.90;;;;;;5034393;28;20217;-88
2022/11/25 07:07:10;;;;;;;9.27;7.30;;;5.20;99.90;;;;;;5032573;28;20249;-86
2022/11/25 07:09:36;;;;;;;9.30;7.80;;;5.20;99.90;;;;;;5033945;28;20193;-85
2022/11/25 07:12:02;;;;;;;7.60;4.73;;;5.30;99.90;;;;;;5033536;28;20217;-84
2022/11/25 07:14:28;;;;;;;7.83;4.23;;;5.20;99.90;;;;;;5034053;28;20200;-85
2022/11/25 07:16:54;;;;;;;5.17;3.80;;;5.10;99.90;;;;;;5034263;28;20213;-86
2022/11/25 07:19:20;;;;;;;5.80;3.87;;;5.20;99.90;;;;;;5034001;28;20213;-86
2022/11/25 07:21:45;;;;;;;6.80;3.60;;;5.10;99.90;;;;;;5034327;28;20197;-86
2022/11/25 07:24:14;;;;;;;4.97;3.37;;;5.10;99.90;;;;;;5034119;28;20201;-86
2022/11/25 07:26:41;;;;;;;5.50;3.40;;;5.10;99.90;;;;;;5034195;28;20178;-87
2022/11/25 07:29:11;;;;;;;7.03;5.33;;;5.10;99.90;;;;;;5033962;28;20205;-84
2022/11/25 07:31:40;;;;;;;12.93;5.83;;;5.10;99.90;;;;;;5033655;28;20269;-84
2022/11/25 07:34:14;;;;;;;6.03;4.23;;;5.00;99.90;;;;;;5043599;28;20177;-84
2022/11/25 07:36:40;;;;;;;4.90;3.53;;;5.10;99.90;;;;;;5040905;28;20190;-85
2022/11/25 07:39:26;;;;;;;7.57;4.83;;;5.20;99.90;;;;;;5032765;28;20213;-85
2022/11/25 07:41:53;;;;;;;5.63;4.63;;;5.40;99.90;;;;;;5033105;28;20222;-86
2022/11/25 07:44:19;;;;;;;4.50;4.10;;;5.40;99.90;;;;;;5033491;28;20256;-84
2022/11/25 07:46:47;;;;;;;5.13;4.33;;;5.50;99.90;;;;;;5033776;28;20220;-85
2022/11/25 07:49:23;;;;;;;4.30;3.80;;;5.60;99.90;;;;;;5032648;28;20186;-85
2022/11/25 07:51:52;;;;;;;4.10;3.27;;;5.60;99.90;;;;;;5033842;28;20206;-85
2022/11/25 07:54:19;;;;;;;4.17;3.77;;;5.50;99.90;;;;;;5032511;28;20209;-84
2022/11/25 07:56:45;;;;;;;5.63;4.07;;;5.60;99.90;;;;;;5016247;28;20193;-86
2022/11/25 07:59:16;;;;;;;4.93;4.03;;;5.70;99.90;;;;;;5034583;28;20225;-87
2022/11/25 08:01:42;;;;;;;5.77;4.13;;;5.70;99.90;;;;;;5037115;28;20205;-85
2022/11/25 08:04:10;;;;;;;4.13;3.73;;;5.80;99.90;;;;;;5037168;28;20353;-86
2022/11/25 08:06:39;;;;;;;5.53;4.00;;;5.90;99.90;;;;;;5036951;28;20177;-85
2022/11/25 08:09:05;;;;;;;4.80;4.30;;;6.00;99.90;;;;;;5033907;28;20197;-86
2022/11/25 08:11:31;;;;;;;6.93;4.50;;;6.00;99.90;;;;;;5032258;28;20246;-84
2022/11/25 08:13:58;;;;;;;6.60;4.50;;;6.20;99.90;;;;;;5032487;28;20290;-87
2022/11/25 08:16:28;;;;;;;4.60;4.07;;;6.20;99.90;;;;;;5015761;28;20202;-84
2022/11/25 08:18:54;;;;;;;5.33;3.80;;;6.20;99.90;;;;;;5031542;28;20239;-85
2022/11/25 08:21:20;;;;;;;5.17;4.00;;;6.20;99.90;;;;;;5032020;28;20201;-85
2022/11/25 08:23:47;;;;;;;6.47;4.60;;;6.30;99.90;;;;;;5019951;28;20201;-85
2022/11/25 08:26:18;;;;;;;6.27;5.33;;;6.40;99.90;;;;;;5032686;28;20201;-85
2022/11/25 08:28:46;;;;;;;8.63;5.50;;;6.20;99.90;;;;;;5032696;28;20233;-86
2022/11/25 08:31:18;;;;;;;6.00;4.93;;;6.10;99.90;;;;;;5031735;28;20232;-84
2022/11/25 08:33:44;;;;;;;6.67;5.23;;;6.20;99.90;;;;;;5024406;28;20200;-85
2022/11/25 08:36:10;;;;;;;6.47;5.30;;;6.40;99.90;;;;;;5032266;28;20194;-86
2022/11/25 08:38:36;;;;;;;5.37;4.77;;;6.40;99.90;;;;;;5032962;28;20181;-84
2022/11/25 08:41:02;;;;;;;5.37;4.57;;;6.40;99.90;;;;;;5031880;28;20229;-85
2022/11/25 08:43:29;;;;;;;6.70;4.53;;;6.50;99.90;;;;;;5032498;28;20172;-85
2022/11/25 08:45:56;;;;;;;5.43;4.70;;;6.50;99.90;;;;;;5031501;28;20190;-84
2022/11/25 08:48:21;;;;;;;6.33;5.00;;;6.60;99.90;;;;;;5031674;28;20225;-84
2022/11/25 08:50:51;;;;;;;5.73;4.53;;;6.60;99.90;;;;;;5031834;28;20197;-86
2022/11/25 08:53:18;;;;;;;5.30;4.33;;;6.60;99.90;;;;;;5031892;28;20197;-85
2022/11/25 08:55:44;;;;;;;5.67;4.03;;;6.60;99.90;;;;;;5031533;28;20221;-85
2022/11/25 08:58:12;;;;;;;4.63;4.13;;;6.50;99.90;;;;;;5030737;28;20193;-84
2022/11/25 09:00:41;;;;;;;6.57;4.67;;;6.60;99.90;;;;;;5030214;28;20218;-85
2022/11/25 09:03:07;;;;;;;5.87;4.43;;;6.60;99.90;;;;;;5030065;28;20245;-86
2022/11/25 09:05:37;;;;;;;5.70;5.13;;;6.50;99.90;;;;;;5031437;28;20178;-85
2022/11/25 09:08:03;;;;;;;6.77;4.87;;;6.50;99.90;;;;;;5028079;28;20228;-84
2022/11/25 09:10:29;;;;;;;7.27;5.70;;;6.60;99.90;;;;;;5018192;28;20203;-85
2022/11/25 09:12:54;;;;;;;6.80;6.10;;;6.50;99.90;;;;;;5001274;28;20194;-85
2022/11/25 09:15:20;;;;;;;8.20;6.30;;;6.60;99.90;;;;;;5029323;28;20212;-84
2022/11/25 09:17:46;;;;;;;14.17;8.10;;;6.60;99.90;;;;;;5030058;28;20253;-86
2022/11/25 09:20:12;;;;;;;10.97;7.00;;;6.60;99.90;;;;;;5029796;28;20682;-85
2022/11/25 09:22:37;;;;;;;8.90;6.70;;;6.40;99.90;;;;;;5030408;28;20170;-85
2022/11/25 09:25:04;;;;;;;7.57;5.77;;;6.30;99.90;;;;;;5030622;28;20228;-85
2022/11/25 09:27:31;;;;;;;7.47;5.67;;;6.20;99.90;;;;;;5029924;28;20188;-85
2022/11/25 09:29:56;;;;;;;6.80;5.60;;;6.30;99.90;;;;;;5027661;28;20228;-84
2022/11/25 09:32:22;;;;;;;7.80;5.90;;;6.20;99.90;;;;;;5029986;28;20260;-85
2022/11/25 09:34:48;;;;;;;7.77;5.43;;;6.10;99.90;;;;;;5029217;28;20224;-84
2022/11/25 09:37:14;;;;;;;7.87;4.97;;;6.10;99.90;;;;;;5029538;28;20261;-85
2022/11/25 09:39:40;;;;;;;6.20;5.50;;;6.20;99.90;;;;;;5012553;28;20217;-86
2022/11/25 09:48:44;;;;;;;4.87;4.37;;;6.70;99.90;;;;;;5030886;28;20189;-84
2022/11/25 09:51:26;;;;;;;7.67;5.43;;;6.80;99.90;;;;;;5025934;28;20228;-85
2022/11/25 09:54:06;;;;;;;6.37;4.50;;;6.70;99.90;;;;;;5024695;28;20189;-85
2022/11/25 09:56:52;;;;;;;5.77;4.87;;;6.70;99.90;;;;;;5029651;28;20177;-84
2022/11/25 09:59:38;;;;;;;6.17;5.17;;;6.70;99.90;;;;;;5029666;28;20259;-86
2022/11/25 10:02:19;;;;;;;7.80;5.50;;;6.80;99.90;;;;;;5029966;28;20260;-86
2022/11/25 10:04:58;;;;;;;5.37;4.87;;;6.80;99.90;;;;;;5024592;28;20194;-84
2022/11/25 10:07:46;;;;;;;9.60;5.17;;;6.80;99.90;;;;;;5024451;28;20174;-84
2022/11/25 10:10:35;;;;;;;7.17;5.63;;;6.70;99.90;;;;;;5018874;28;20184;-83
2022/11/25 10:13:04;;;;;;;8.63;5.63;;;6.80;99.90;;;;;;5029126;28;20194;-85
2022/11/25 10:15:39;;;;;;;6.27;5.13;;;6.70;99.90;;;;;;5026808;28;20197;-84
2022/11/25 10:18:28;;;;;;;6.90;5.37;;;6.80;99.90;;;;;;5017724;28;20185;-85
2022/11/25 10:20:54;;;;;;;9.60;5.70;;;6.90;99.90;;;;;;5030084;28;20286;-84
2022/11/25 10:23:28;;;;;;;7.87;5.50;;;6.90;99.90;;;;;;5029232;28;20209;-84
2022/11/25 10:26:02;;;;;;;7.07;5.33;;;6.80;99.90;;;;;;5032182;28;20216;-86
2022/11/25 10:28:33;;;;;;;7.97;5.53;;;6.90;99.90;;;;;;5026294;28;20180;-84
2022/11/25 10:31:22;;;;;;;6.37;5.50;;;6.90;99.90;;;;;;5026885;28;20201;-85
2022/11/25 10:33:51;;;;;;;8.07;6.07;;;6.80;99.90;;;;;;5030312;28;20269;-86
2022/11/25 10:36:28;;;;;;;7.17;5.23;;;6.80;99.90;;;;;;5030977;28;20406;-85
2022/11/25 10:39:05;;;;;;;8.63;5.70;;;6.90;99.90;;;;;;5026438;28;20627;-85
2022/11/25 10:41:43;;;;;;;6.87;5.50;;;7.20;99.90;;;;;;5031087;28;20205;-85
2022/11/25 10:44:23;;;;;;;9.33;5.63;;;7.20;99.90;;;;;;5030033;28;20181;-85
2022/11/25 10:47:02;;;;;;;6.37;5.07;;;7.40;99.90;;;;;;5026744;28;20189;-85
2022/11/25 10:49:42;;;;;;;7.07;5.30;;;7.40;99.90;;;;;;5031560;28;20181;-87
2022/11/25 10:52:11;;;;;;;9.17;5.57;;;7.30;99.90;;;;;;5030966;28;20236;-84
2022/11/25 10:54:36;;;;;;;7.40;5.27;;;7.30;99.90;;;;;;5031982;28;20186;-85
2022/11/25 10:57:14;;;;;;;6.93;5.00;;;7.20;99.90;;;;;;5031842;28;20192;-83
2022/11/25 10:59:40;;;;;;;7.43;5.40;;;7.40;99.90;;;;;;5032063;28;20224;-84
2022/11/25 11:02:15;;;;;;;8.10;6.07;;;7.50;99.90;;;;;;5010428;28;20218;-84
2022/11/25 11:05:15;;;;;;;6.80;5.60;;;7.50;99.90;;;;;;5020827;28;20192;-85
2022/11/25 11:07:44;;;;;;;9.23;5.53;;;7.60;99.90;;;;;;5033153;28;20405;-84
2022/11/25 11:10:12;;;;;;;10.90;5.97;;;7.40;99.90;;;;;;5027210;28;20185;-84
2022/11/25 11:12:58;;;;;;;6.77;5.77;;;7.40;99.90;;;;;;5027449;28;20208;-85
2022/11/25 11:15:29;;;;;;;8.53;6.27;;;7.40;99.90;;;;;;5042221;28;20201;-84
2022/11/25 11:17:56;;;;;;;8.03;6.57;;;7.40;99.90;;;;;;5032431;28;20194;-82
2022/11/25 11:20:28;;;;;;;8.10;6.63;;;7.50;99.90;;;;;;5032218;28;20220;-85
2022/11/25 11:23:03;;;;;;;8.07;6.90;;;7.40;99.90;;;;;;5015158;28;20213;-84
2022/11/25 11:25:32;;;;;;;8.23;7.40;;;7.50;99.90;;;;;;5032760;28;20706;-84
2022/11/25 11:27:59;;;;;;;10.83;7.53;;;7.50;99.90;;;;;;5033994;28;20185;-84
2022/11/25 11:30:28;;;;;;;10.40;7.40;;;7.50;99.90;;;;;;5033374;28;20225;-84
2022/11/25 11:33:25;;;;;;;9.67;6.60;;;7.50;99.90;;;;;;5032317;28;20201;-84
2022/11/25 11:36:00;;;;;;;7.93;6.10;;;7.80;99.90;;;;;;5031443;28;20231;-82
2022/11/25 11:38:34;;;;;;;9.77;6.77;;;7.90;99.90;;;;;;5033363;28;20188;-85
2022/11/25 11:41:19;;;;;;;9.60;6.63;;;7.90;99.90;;;;;;5017722;28;20193;-84
2022/11/25 11:43:57;;;;;;;8.27;6.97;;;8.00;99.90;;;;;;5032582;28;20201;-85
2022/11/25 11:46:47;;;;;;;11.20;7.37;;;7.90;99.90;;;;;;5008086;28;20185;-84
2022/11/25 11:49:28;;;;;;;9.63;6.70;;;8.00;99.90;;;;;;5029475;28;20174;-86
2022/11/25 11:52:03;;;;;;;11.00;7.57;;;8.10;99.90;;;;;;5027315;28;20222;-84
2022/11/25 11:54:32;;;;;;;9.73;7.10;;;8.10;99.90;;;;;;5015370;28;20200;-85
2022/11/25 11:57:35;;;;;;;8.70;7.27;;;8.10;99.90;;;;;;5032334;28;20213;-85
2022/11/25 12:00:05;;;;;;;13.57;6.80;;;8.10;99.90;;;;;;5031851;28;20201;-84
2022/11/25 12:03:08;;;;;;;7.83;6.67;;;8.20;99.90;;;;;;5032583;28;20185;-85
2022/11/25 12:05:36;;;;;;;9.70;6.40;;;8.30;99.90;;;;;;5027098;28;20257;-85
2022/11/25 12:08:34;;;;;;;9.43;6.53;;;8.50;99.90;;;;;;5014922;28;20174;-86
2022/11/25 12:11:10;;;;;;;9.03;6.00;;;8.60;99.90;;;;;;5009487;28;20201;-85
2022/11/25 12:13:54;;;;;;;10.83;6.43;;;8.70;99.90;;;;;;5021528;28;20169;-85
2022/11/25 12:16:46;;;;;;;7.30;6.13;;;8.60;99.90;;;;;;5041678;28;20173;-86
2022/11/25 12:19:25;;;;;;;8.10;6.10;;;8.60;99.90;;;;;;5018368;28;20213;-87
2022/11/25 12:21:54;;;;;;;8.07;5.67;;;8.60;99.90;;;;;;5037851;28;20192;-85
2022/11/25 12:24:23;;;;;;;8.57;5.97;;;8.60;99.90;;;;;;5023442;28;20224;-87
2022/11/25 12:26:53;;;;;;;7.70;5.63;;;8.60;99.90;;;;;;5034621;28;20223;-88
2022/11/25 12:29:26;;;;;;;11.73;6.47;;;8.60;99.90;;;;;;5020372;28;20184;-87
2022/11/25 12:31:59;;;;;;;11.83;6.87;;;8.70;99.90;;;;;;5032333;28;20353;-87
2022/11/25 12:34:51;;;;;;;10.77;7.00;;;8.90;99.90;;;;;;5033559;28;20264;-86
2022/11/25 12:37:27;;;;;;;6.43;5.80;;;8.80;99.90;;;;;;5027331;28;20205;-85
2022/11/25 12:40:03;;;;;;;8.83;6.90;;;8.70;99.90;;;;;;5034034;28;20217;-84
2022/11/25 12:42:31;;;;;;;11.03;6.30;;;8.80;99.90;;;;;;5030718;28;20200;-88
2022/11/25 12:45:03;;;;;;;8.70;6.20;;;9.10;99.90;;;;;;5030931;28;20194;-84
2022/11/25 12:47:29;;;;;;;6.70;5.60;;;9.40;99.90;;;;;;5031578;28;20186;-87
2022/11/25 12:49:55;;;;;;;7.70;6.17;;;9.50;99.90;;;;;;5013491;28;20190;-87
2022/11/25 12:52:41;;;;;;;8.43;5.90;;;9.60;99.90;;;;;;5030905;28;20206;-85
2022/11/25 12:55:19;;;;;;;7.27;5.77;;;9.50;99.90;;;;;;5025186;28;20185;-86
2022/11/25 12:57:53;;;;;;;10.00;6.27;;;9.50;99.90;;;;;;5030239;28;20217;-85
2022/11/25 13:00:24;;;;;;;8.10;6.10;;;9.40;99.90;;;;;;5018293;28;20220;-86
2022/11/25 13:02:58;;;;;;;8.13;5.90;;;9.20;99.90;;;;;;5029007;28;20186;-85
2022/11/25 13:05:27;;;;;;;11.03;6.27;;;9.20;99.90;;;;;;5021098;28;20184;-85
2022/11/25 13:08:07;;;;;;;9.87;6.20;;;9.10;99.90;;;;;;5029398;28;20178;-87
2022/11/25 13:11:02;;;;;;;8.70;6.03;;;9.10;99.90;;;;;;5010583;28;20213;-85
2022/11/25 13:13:46;;;;;;;10.73;6.10;;;9.10;99.90;;;;;;5028628;28;20200;-85
2022/11/25 13:16:13;;;;;;;10.03;5.90;;;9.10;99.90;;;;;;5028781;28;20185;-87
2022/11/25 13:18:41;;;;;;;10.60;5.87;;;9.00;99.90;;;;;;5029787;28;20193;-86